sensor_id;sensor_type;location;lat;lon;timestamp;temperature;humidity
21805;DHT22;11064;47.102;15.452;2022-07-29T04:03:15;17.30;99.90
21805;DHT22;11064;47.102;15.452;2022-07-29T04:05:41;17.30;99.90
21805;DHT22;11064;47.102;15.452;2022-07-29T04:08:07;17.20;99.90
21805;DHT22;11064;47.102;15.452;2022-07-29T04:10:32;17.20;99.90
21805;DHT22;11064;47.102;15.452;2022-07-29T04:12:59;17.10;99.90
21805;DHT22;11064;47.102;15.452;2022-07-29T04:15:25;17.10;99.90
21805;DHT22;11064;47.102;15.452;2022-07-29T04:17:52;17.10;99.90
21805;DHT22;11064;47.102;15.452;2022-07-29T04:20:18;17.10;99.90
21805;DHT22;11064;47.102;15.452;2022-07-29T04:22:44;17.20;99.90
21805;DHT22;11064;47.102;15.452;2022-07-29T04:25:10;17.20;99.90
21805;DHT22;11064;47.102;15.452;2022-07-29T04:27:36;17.20;99.90
21805;DHT22;11064;47.102;15.452;2022-07-29T04:30:21;17.30;99.90
21805;DHT22;11064;47.102;15.452;2022-07-29T04:32:47;17.40;99.90
21805;DHT22;11064;47.102;15.452;2022-07-29T04:35:13;17.60;99.90
21805;DHT22;11064;47.102;15.452;2022-07-29T04:37:39;17.60;99.90
21805;DHT22;11064;47.102;15.452;2022-07-29T04:40:05;17.70;99.90
21805;DHT22;11064;47.102;15.452;2022-07-29T04:42:31;17.90;99.90
21805;DHT22;11064;47.102;15.452;2022-07-29T04:44:56;18.10;99.90
21805;DHT22;11064;47.102;15.452;2022-07-29T04:47:22;18.20;99.90
21805;DHT22;11064;47.102;15.452;2022-07-29T04:49:48;19.20;99.90
21805;DHT22;11064;47.102;15.452;2022-07-29T04:52:14;20.80;99.90
21805;DHT22;11064;47.102;15.452;2022-07-29T04:54:39;22.00;99.90
21805;DHT22;11064;47.102;15.452;2022-07-29T04:57:05;23.10;99.90
21805;DHT22;11064;47.102;15.452;2022-07-29T04:59:31;23.90;94.70
21805;DHT22;11064;47.102;15.452;2022-07-29T05:01:57;24.90;90.30
21805;DHT22;11064;47.102;15.452;2022-07-29T05:04:22;25.40;84.90
21805;DHT22;11064;47.102;15.452;2022-07-29T05:06:48;25.80;80.80
21805;DHT22;11064;47.102;15.452;2022-07-29T05:09:14;26.70;76.30
21805;DHT22;11064;47.102;15.452;2022-07-29T05:11:40;27.00;72.60
21805;DHT22;11064;47.102;15.452;2022-07-29T05:14:05;27.50;70.00
21805;DHT22;11064;47.102;15.452;2022-07-29T05:16:31;28.20;66.50
21805;DHT22;11064;47.102;15.452;2022-07-29T05:18:57;28.10;65.10
21805;DHT22;11064;47.102;15.452;2022-07-29T05:21:23;28.20;64.50
21805;DHT22;11064;47.102;15.452;2022-07-29T05:23:48;29.00;62.90
21805;DHT22;11064;47.102;15.452;2022-07-29T05:26:14;29.30;60.20
21805;DHT22;11064;47.102;15.452;2022-07-29T05:28:40;30.50;58.70
21805;DHT22;11064;47.102;15.452;2022-07-29T05:31:05;31.30;55.90
21805;DHT22;11064;47.102;15.452;2022-07-29T05:33:31;31.80;54.30
21805;DHT22;11064;47.102;15.452;2022-07-29T05:35:57;31.80;53.70
21805;DHT22;11064;47.102;15.452;2022-07-29T05:38:23;31.80;53.80
21805;DHT22;11064;47.102;15.452;2022-07-29T05:40:49;31.70;53.80
21805;DHT22;11064;47.102;15.452;2022-07-29T05:43:14;32.10;52.80
21805;DHT22;11064;47.102;15.452;2022-07-29T05:45:40;31.20;53.00
21805;DHT22;11064;47.102;15.452;2022-07-29T05:48:06;30.90;54.20
21805;DHT22;11064;47.102;15.452;2022-07-29T05:50:31;30.10;56.10
21805;DHT22;11064;47.102;15.452;2022-07-29T05:52:57;28.90;57.30
21805;DHT22;11064;47.102;15.452;2022-07-29T05:55:23;28.90;59.50
21805;DHT22;11064;47.102;15.452;2022-07-29T05:57:49;28.90;60.00
21805;DHT22;11064;47.102;15.452;2022-07-29T06:00:15;28.80;60.20
21805;DHT22;11064;47.102;15.452;2022-07-29T06:02:40;28.20;62.30
21805;DHT22;11064;47.102;15.452;2022-07-29T06:05:06;27.70;64.00
21805;DHT22;11064;47.102;15.452;2022-07-29T06:07:33;27.20;66.30
21805;DHT22;11064;47.102;15.452;2022-07-29T06:09:59;25.90;71.80
21805;DHT22;11064;47.102;15.452;2022-07-29T06:12:24;24.80;79.70
21805;DHT22;11064;47.102;15.452;2022-07-29T06:14:50;23.90;90.50
21805;DHT22;11064;47.102;15.452;2022-07-29T06:17:17;23.10;94.00
21805;DHT22;11064;47.102;15.452;2022-07-29T06:19:42;22.70;99.30
21805;DHT22;11064;47.102;15.452;2022-07-29T06:22:08;22.50;99.90
21805;DHT22;11064;47.102;15.452;2022-07-29T06:24:34;22.40;99.90
21805;DHT22;11064;47.102;15.452;2022-07-29T06:27:02;22.20;99.90
21805;DHT22;11064;47.102;15.452;2022-07-29T06:29:28;22.40;99.90
21805;DHT22;11064;47.102;15.452;2022-07-29T06:31:54;22.30;99.90
21805;DHT22;11064;47.102;15.452;2022-07-29T06:34:19;22.40;99.90
21805;DHT22;11064;47.102;15.452;2022-07-29T06:36:45;22.60;99.90
21805;DHT22;11064;47.102;15.452;2022-07-29T06:39:11;22.70;99.90
21805;DHT22;11064;47.102;15.452;2022-07-29T06:41:37;22.70;99.10
21805;DHT22;11064;47.102;15.452;2022-07-29T06:44:02;22.90;99.90
21805;DHT22;11064;47.102;15.452;2022-07-29T06:46:30;23.40;98.60
21805;DHT22;11064;47.102;15.452;2022-07-29T06:48:55;23.60;96.10
21805;DHT22;11064;47.102;15.452;2022-07-29T06:51:21;24.10;95.00
21805;DHT22;11064;47.102;15.452;2022-07-29T06:53:47;24.50;93.90
21805;DHT22;11064;47.102;15.452;2022-07-29T06:56:13;24.70;92.50
21805;DHT22;11064;47.102;15.452;2022-07-29T06:58:39;24.90;91.50
21805;DHT22;11064;47.102;15.452;2022-07-29T07:01:06;25.00;93.20
21805;DHT22;11064;47.102;15.452;2022-07-29T07:03:32;25.00;90.90
21805;DHT22;11064;47.102;15.452;2022-07-29T07:05:58;25.20;91.60
21805;DHT22;11064;47.102;15.452;2022-07-29T07:08:24;25.30;91.00
21805;DHT22;11064;47.102;15.452;2022-07-29T07:10:51;25.30;91.40
21805;DHT22;11064;47.102;15.452;2022-07-29T07:13:17;25.30;88.60
21805;DHT22;11064;47.102;15.452;2022-07-29T07:15:44;25.40;90.50
21805;DHT22;11064;47.102;15.452;2022-07-29T07:18:10;25.60;91.00
21805;DHT22;11064;47.102;15.452;2022-07-29T07:20:37;25.60;90.40
21805;DHT22;11064;47.102;15.452;2022-07-29T07:23:02;25.40;86.40
21805;DHT22;11064;47.102;15.452;2022-07-29T07:25:28;25.70;87.00
21805;DHT22;11064;47.102;15.452;2022-07-29T07:27:54;25.90;87.00
21805;DHT22;11064;47.102;15.452;2022-07-29T07:30:20;26.00;81.40
21805;DHT22;11064;47.102;15.452;2022-07-29T07:32:46;26.00;78.10
21805;DHT22;11064;47.102;15.452;2022-07-29T07:35:12;26.20;79.00
21805;DHT22;11064;47.102;15.452;2022-07-29T07:37:38;26.00;76.30
21805;DHT22;11064;47.102;15.452;2022-07-29T07:40:06;26.00;77.00
21805;DHT22;11064;47.102;15.452;2022-07-29T07:42:33;26.20;78.50
21805;DHT22;11064;47.102;15.452;2022-07-29T07:44:59;26.20;74.50
21805;DHT22;11064;47.102;15.452;2022-07-29T07:47:24;26.20;71.90
21805;DHT22;11064;47.102;15.452;2022-07-29T07:49:51;26.40;74.00
21805;DHT22;11064;47.102;15.452;2022-07-29T07:52:17;26.60;77.90
21805;DHT22;11064;47.102;15.452;2022-07-29T07:54:44;26.80;76.90
21805;DHT22;11064;47.102;15.452;2022-07-29T07:57:14;26.90;74.70
21805;DHT22;11064;47.102;15.452;2022-07-29T07:59:40;26.80;72.60
21805;DHT22;11064;47.102;15.452;2022-07-29T08:02:07;26.90;73.20
21805;DHT22;11064;47.102;15.452;2022-07-29T08:04:33;26.90;72.40
21805;DHT22;11064;47.102;15.452;2022-07-29T08:06:59;27.00;73.30
21805;DHT22;11064;47.102;15.452;2022-07-29T08:09:26;27.10;70.60
21805;DHT22;11064;47.102;15.452;2022-07-29T08:11:52;27.20;69.50
21805;DHT22;11064;47.102;15.452;2022-07-29T08:14:19;27.40;68.20
21805;DHT22;11064;47.102;15.452;2022-07-29T08:16:44;27.60;68.00
21805;DHT22;11064;47.102;15.452;2022-07-29T08:19:10;27.30;68.00
21805;DHT22;11064;47.102;15.452;2022-07-29T08:21:37;27.50;69.50
21805;DHT22;11064;47.102;15.452;2022-07-29T08:24:03;27.40;66.70
21805;DHT22;11064;47.102;15.452;2022-07-29T08:26:48;27.40;70.90
21805;DHT22;11064;47.102;15.452;2022-07-29T08:29:14;27.60;72.30
21805;DHT22;11064;47.102;15.452;2022-07-29T08:31:40;27.90;69.30
21805;DHT22;11064;47.102;15.452;2022-07-29T08:34:06;28.30;66.90
21805;DHT22;11064;47.102;15.452;2022-07-29T08:36:32;28.50;63.60
21805;DHT22;11064;47.102;15.452;2022-07-29T08:38:59;28.60;65.70
21805;DHT22;11064;47.102;15.452;2022-07-29T08:41:25;29.00;67.80
21805;DHT22;11064;47.102;15.452;2022-07-29T08:43:52;29.30;66.00
21805;DHT22;11064;47.102;15.452;2022-07-29T08:46:20;29.10;61.90
21805;DHT22;11064;47.102;15.452;2022-07-29T08:48:46;29.10;65.90
21805;DHT22;11064;47.102;15.452;2022-07-29T08:51:18;29.20;65.30
21805;DHT22;11064;47.102;15.452;2022-07-29T08:53:45;29.30;66.30
21805;DHT22;11064;47.102;15.452;2022-07-29T08:56:14;29.50;64.00
21805;DHT22;11064;47.102;15.452;2022-07-29T08:58:42;29.70;59.60
21805;DHT22;11064;47.102;15.452;2022-07-29T09:01:08;29.90;60.80
21805;DHT22;11064;47.102;15.452;2022-07-29T09:03:37;30.10;64.00
21805;DHT22;11064;47.102;15.452;2022-07-29T09:06:05;30.10;60.20
21805;DHT22;11064;47.102;15.452;2022-07-29T09:08:32;30.00;57.90
21805;DHT22;11064;47.102;15.452;2022-07-29T09:10:58;29.60;57.20
21805;DHT22;11064;47.102;15.452;2022-07-29T09:13:26;29.40;58.50
21805;DHT22;11064;47.102;15.452;2022-07-29T09:15:52;29.60;60.00
21805;DHT22;11064;47.102;15.452;2022-07-29T09:18:34;29.70;60.80
21805;DHT22;11064;47.102;15.452;2022-07-29T09:21:04;29.90;59.20
21805;DHT22;11064;47.102;15.452;2022-07-29T09:26:29;30.40;57.00
21805;DHT22;11064;47.102;15.452;2022-07-29T09:28:55;30.60;55.40
21805;DHT22;11064;47.102;15.452;2022-07-29T09:31:32;30.80;55.40
21805;DHT22;11064;47.102;15.452;2022-07-29T09:33:59;31.20;57.80
21805;DHT22;11064;47.102;15.452;2022-07-29T09:36:26;31.30;56.40
21805;DHT22;11064;47.102;15.452;2022-07-29T09:38:59;31.30;56.70
21805;DHT22;11064;47.102;15.452;2022-07-29T09:41:26;31.40;57.20
21805;DHT22;11064;47.102;15.452;2022-07-29T09:43:58;31.00;57.40
21805;DHT22;11064;47.102;15.452;2022-07-29T09:46:25;31.10;57.10
21805;DHT22;11064;47.102;15.452;2022-07-29T09:49:08;31.40;59.40
21805;DHT22;11064;47.102;15.452;2022-07-29T09:51:35;31.40;58.10
21805;DHT22;11064;47.102;15.452;2022-07-29T09:54:00;31.60;57.60
21805;DHT22;11064;47.102;15.452;2022-07-29T09:56:41;31.80;59.10
21805;DHT22;11064;47.102;15.452;2022-07-29T09:59:08;32.00;57.40
21805;DHT22;11064;47.102;15.452;2022-07-29T10:01:34;32.00;56.10
21805;DHT22;11064;47.102;15.452;2022-07-29T10:04:01;32.40;54.30
21805;DHT22;11064;47.102;15.452;2022-07-29T10:06:27;32.50;56.70
21805;DHT22;11064;47.102;15.452;2022-07-29T10:08:53;32.70;52.50
21805;DHT22;11064;47.102;15.452;2022-07-29T10:11:19;33.00;51.80
21805;DHT22;11064;47.102;15.452;2022-07-29T10:13:47;33.10;50.80
21805;DHT22;11064;47.102;15.452;2022-07-29T10:16:14;33.40;54.00
21805;DHT22;11064;47.102;15.452;2022-07-29T10:18:42;33.40;50.30
21805;DHT22;11064;47.102;15.452;2022-07-29T10:21:09;33.60;51.40
21805;DHT22;11064;47.102;15.452;2022-07-29T10:23:36;33.30;53.30
21805;DHT22;11064;47.102;15.452;2022-07-29T10:26:03;33.00;50.80
21805;DHT22;11064;47.102;15.452;2022-07-29T10:28:32;32.80;53.10
21805;DHT22;11064;47.102;15.452;2022-07-29T10:31:14;32.30;54.70
21805;DHT22;11064;47.102;15.452;2022-07-29T10:34:07;31.70;54.90
21805;DHT22;11064;47.102;15.452;2022-07-29T10:37:03;31.00;56.70
21805;DHT22;11064;47.102;15.452;2022-07-29T10:39:54;30.30;56.50
21805;DHT22;11064;47.102;15.452;2022-07-29T10:42:22;29.70;58.80
21805;DHT22;11064;47.102;15.452;2022-07-29T10:44:50;29.30;63.40
21805;DHT22;11064;47.102;15.452;2022-07-29T10:47:24;29.10;65.00
21805;DHT22;11064;47.102;15.452;2022-07-29T10:50:06;28.80;63.80
21805;DHT22;11064;47.102;15.452;2022-07-29T10:52:54;28.80;62.30
21805;DHT22;11064;47.102;15.452;2022-07-29T10:55:34;28.90;63.70
21805;DHT22;11064;47.102;15.452;2022-07-29T10:58:22;29.00;62.90
21805;DHT22;11064;47.102;15.452;2022-07-29T11:00:53;29.30;61.50
21805;DHT22;11064;47.102;15.452;2022-07-29T11:03:44;29.40;58.90
21805;DHT22;11064;47.102;15.452;2022-07-29T11:06:11;29.70;59.50
21805;DHT22;11064;47.102;15.452;2022-07-29T11:08:37;30.00;57.20
21805;DHT22;11064;47.102;15.452;2022-07-29T11:16:16;31.30;54.70
21805;DHT22;11064;47.102;15.452;2022-07-29T11:21:37;32.00;53.20
21805;DHT22;11064;47.102;15.452;2022-07-29T11:24:20;32.30;53.60
21805;DHT22;11064;47.102;15.452;2022-07-29T11:29:58;33.00;49.90
21805;DHT22;11064;47.102;15.452;2022-07-29T11:32:36;32.70;50.50
21805;DHT22;11064;47.102;15.452;2022-07-29T11:35:22;32.80;49.60
21805;DHT22;11064;47.102;15.452;2022-07-29T11:38:26;33.30;46.40
21805;DHT22;11064;47.102;15.452;2022-07-29T11:43:54;32.70;47.70
21805;DHT22;11064;47.102;15.452;2022-07-29T11:46:55;32.70;51.30
21805;DHT22;11064;47.102;15.452;2022-07-29T11:49:24;32.90;52.30
21805;DHT22;11064;47.102;15.452;2022-07-29T11:51:51;32.90;49.00
21805;DHT22;11064;47.102;15.452;2022-07-29T11:54:25;32.80;47.10
21805;DHT22;11064;47.102;15.452;2022-07-29T11:56:52;32.10;48.30
21805;DHT22;11064;47.102;15.452;2022-07-29T11:59:19;31.50;49.50
21805;DHT22;11064;47.102;15.452;2022-07-29T12:01:58;31.30;50.70
21805;DHT22;11064;47.102;15.452;2022-07-29T12:04:25;31.10;51.00
21805;DHT22;11064;47.102;15.452;2022-07-29T12:06:54;30.90;52.00
21805;DHT22;11064;47.102;15.452;2022-07-29T12:09:21;31.00;52.20
21805;DHT22;11064;47.102;15.452;2022-07-29T12:11:48;31.10;53.20
21805;DHT22;11064;47.102;15.452;2022-07-29T12:14:29;31.20;52.70
21805;DHT22;11064;47.102;15.452;2022-07-29T12:16:55;31.50;52.00
21805;DHT22;11064;47.102;15.452;2022-07-29T12:19:21;31.30;52.90
21805;DHT22;11064;47.102;15.452;2022-07-29T12:21:50;31.40;52.40
21805;DHT22;11064;47.102;15.452;2022-07-29T12:24:17;31.30;50.40
21805;DHT22;11064;47.102;15.452;2022-07-29T12:27:09;31.30;52.00
21805;DHT22;11064;47.102;15.452;2022-07-29T12:29:35;31.50;54.50
21805;DHT22;11064;47.102;15.452;2022-07-29T12:32:02;31.60;51.80
21805;DHT22;11064;47.102;15.452;2022-07-29T12:34:28;31.60;53.00
21805;DHT22;11064;47.102;15.452;2022-07-29T12:36:54;31.60;52.40
21805;DHT22;11064;47.102;15.452;2022-07-29T12:39:21;31.50;52.30
21805;DHT22;11064;47.102;15.452;2022-07-29T12:41:47;31.60;52.00
21805;DHT22;11064;47.102;15.452;2022-07-29T12:44:12;31.60;54.20
21805;DHT22;11064;47.102;15.452;2022-07-29T12:46:38;31.60;51.80
21805;DHT22;11064;47.102;15.452;2022-07-29T12:49:04;31.60;52.00
21805;DHT22;11064;47.102;15.452;2022-07-29T12:51:34;31.50;53.30
21805;DHT22;11064;47.102;15.452;2022-07-29T12:54:10;31.30;51.40
21805;DHT22;11064;47.102;15.452;2022-07-29T12:56:40;31.50;54.10
21805;DHT22;11064;47.102;15.452;2022-07-29T12:59:18;31.70;52.60
21805;DHT22;11064;47.102;15.452;2022-07-29T13:01:45;31.90;50.10
21805;DHT22;11064;47.102;15.452;2022-07-29T13:04:28;31.80;50.60
21805;DHT22;11064;47.102;15.452;2022-07-29T13:07:07;32.00;50.90
21805;DHT22;11064;47.102;15.452;2022-07-29T13:09:41;31.90;47.70
21805;DHT22;11064;47.102;15.452;2022-07-29T13:12:11;31.60;49.00
21805;DHT22;11064;47.102;15.452;2022-07-29T13:17:11;30.90;52.30
21805;DHT22;11064;47.102;15.452;2022-07-29T13:19:42;30.70;54.00
21805;DHT22;11064;47.102;15.452;2022-07-29T13:22:11;30.60;53.00
21805;DHT22;11064;47.102;15.452;2022-07-29T13:24:55;30.40;50.90
21805;DHT22;11064;47.102;15.452;2022-07-29T13:27:27;30.30;53.30
21805;DHT22;11064;47.102;15.452;2022-07-29T13:29:54;30.20;53.80
21805;DHT22;11064;47.102;15.452;2022-07-29T13:32:26;30.20;53.30
21805;DHT22;11064;47.102;15.452;2022-07-29T13:34:53;30.30;54.10
21805;DHT22;11064;47.102;15.452;2022-07-29T13:37:19;30.80;55.60
21805;DHT22;11064;47.102;15.452;2022-07-29T13:39:45;31.20;51.60
21805;DHT22;11064;47.102;15.452;2022-07-29T13:42:11;31.50;49.00
21805;DHT22;11064;47.102;15.452;2022-07-29T13:44:40;31.60;51.40
21805;DHT22;11064;47.102;15.452;2022-07-29T13:47:07;31.40;52.70
21805;DHT22;11064;47.102;15.452;2022-07-29T13:49:34;31.20;52.50
21805;DHT22;11064;47.102;15.452;2022-07-29T13:52:00;30.70;50.40
21805;DHT22;11064;47.102;15.452;2022-07-29T13:54:26;30.90;50.80
21805;DHT22;11064;47.102;15.452;2022-07-29T13:56:52;31.00;50.80
21805;DHT22;11064;47.102;15.452;2022-07-29T13:59:18;31.50;50.70
21805;DHT22;11064;47.102;15.452;2022-07-29T14:01:44;31.30;50.60
21805;DHT22;11064;47.102;15.452;2022-07-29T14:04:10;31.10;50.50
21805;DHT22;11064;47.102;15.452;2022-07-29T14:06:36;30.60;49.20
21805;DHT22;11064;47.102;15.452;2022-07-29T14:09:03;30.40;50.80
21805;DHT22;11064;47.102;15.452;2022-07-29T14:11:32;30.00;51.70
21805;DHT22;11064;47.102;15.452;2022-07-29T14:13:58;29.50;52.00
21805;DHT22;11064;47.102;15.452;2022-07-29T14:16:23;29.40;54.10
21805;DHT22;11064;47.102;15.452;2022-07-29T14:18:49;29.40;54.00
21805;DHT22;11064;47.102;15.452;2022-07-29T14:21:15;29.30;53.10
21805;DHT22;11064;47.102;15.452;2022-07-29T14:23:41;29.20;52.50
21805;DHT22;11064;47.102;15.452;2022-07-29T14:26:06;29.00;53.90
21805;DHT22;11064;47.102;15.452;2022-07-29T14:28:32;29.10;54.70
21805;DHT22;11064;47.102;15.452;2022-07-29T14:30:58;29.00;55.20
21805;DHT22;11064;47.102;15.452;2022-07-29T14:33:24;29.10;56.20
21805;DHT22;11064;47.102;15.452;2022-07-29T14:35:50;29.00;53.80
21805;DHT22;11064;47.102;15.452;2022-07-29T14:38:15;29.00;54.00
21805;DHT22;11064;47.102;15.452;2022-07-29T14:40:41;28.90;54.10
21805;DHT22;11064;47.102;15.452;2022-07-29T14:43:07;29.00;54.80
21805;DHT22;11064;47.102;15.452;2022-07-29T14:45:33;28.90;57.00
21805;DHT22;11064;47.102;15.452;2022-07-29T14:47:59;28.70;56.00
21805;DHT22;11064;47.102;15.452;2022-07-29T14:50:25;28.90;55.50
21805;DHT22;11064;47.102;15.452;2022-07-29T14:52:52;28.90;56.30
21805;DHT22;11064;47.102;15.452;2022-07-29T14:55:18;28.80;56.10
21805;DHT22;11064;47.102;15.452;2022-07-29T14:57:44;28.60;57.20
21805;DHT22;11064;47.102;15.452;2022-07-29T15:00:10;28.10;56.10
21805;DHT22;11064;47.102;15.452;2022-07-29T15:02:36;28.00;56.90
21805;DHT22;11064;47.102;15.452;2022-07-29T15:05:03;28.00;58.00
21805;DHT22;11064;47.102;15.452;2022-07-29T15:07:29;28.10;57.10
21805;DHT22;11064;47.102;15.452;2022-07-29T15:09:55;28.10;57.50
21805;DHT22;11064;47.102;15.452;2022-07-29T15:12:20;28.00;57.10
21805;DHT22;11064;47.102;15.452;2022-07-29T15:14:46;28.20;58.40
21805;DHT22;11064;47.102;15.452;2022-07-29T15:17:12;28.50;56.20
21805;DHT22;11064;47.102;15.452;2022-07-29T15:19:38;28.50;55.00
21805;DHT22;11064;47.102;15.452;2022-07-29T15:22:04;28.70;56.70
21805;DHT22;11064;47.102;15.452;2022-07-29T15:24:32;29.00;55.40
21805;DHT22;11064;47.102;15.452;2022-07-29T15:26:58;29.00;52.90
21805;DHT22;11064;47.102;15.452;2022-07-29T15:29:24;29.00;54.40
21805;DHT22;11064;47.102;15.452;2022-07-29T15:31:50;28.60;53.90
21805;DHT22;11064;47.102;15.452;2022-07-29T15:34:15;28.40;54.80
21805;DHT22;11064;47.102;15.452;2022-07-29T15:36:41;28.10;53.70
21805;DHT22;11064;47.102;15.452;2022-07-29T15:39:07;28.20;54.00
21805;DHT22;11064;47.102;15.452;2022-07-29T15:41:34;28.50;54.50
21805;DHT22;11064;47.102;15.452;2022-07-29T15:44:00;28.70;54.50
21805;DHT22;11064;47.102;15.452;2022-07-29T15:46:26;28.90;54.30
21805;DHT22;11064;47.102;15.452;2022-07-29T15:49:10;28.80;53.60
21805;DHT22;11064;47.102;15.452;2022-07-29T15:51:35;29.00;53.70
21805;DHT22;11064;47.102;15.452;2022-07-29T15:54:03;29.10;53.10
21805;DHT22;11064;47.102;15.452;2022-07-29T15:56:30;29.40;51.90
21805;DHT22;11064;47.102;15.452;2022-07-29T15:58:56;29.60;51.00
21805;DHT22;11064;47.102;15.452;2022-07-29T16:01:22;29.60;51.00
21805;DHT22;11064;47.102;15.452;2022-07-29T16:03:48;29.60;51.20
21805;DHT22;11064;47.102;15.452;2022-07-29T16:06:14;29.40;52.40
21805;DHT22;11064;47.102;15.452;2022-07-29T16:08:40;29.20;52.80
21805;DHT22;11064;47.102;15.452;2022-07-29T16:11:06;29.10;52.80
21805;DHT22;11064;47.102;15.452;2022-07-29T16:13:32;28.80;53.10
21805;DHT22;11064;47.102;15.452;2022-07-29T16:15:57;28.60;54.10
21805;DHT22;11064;47.102;15.452;2022-07-29T16:18:23;28.20;55.10
21805;DHT22;11064;47.102;15.452;2022-07-29T16:20:49;28.10;55.90
21805;DHT22;11064;47.102;15.452;2022-07-29T16:23:14;27.80;56.60
21805;DHT22;11064;47.102;15.452;2022-07-29T16:25:41;27.70;57.20
21805;DHT22;11064;47.102;15.452;2022-07-29T16:28:07;27.80;56.40
21805;DHT22;11064;47.102;15.452;2022-07-29T16:30:34;28.00;55.80
21805;DHT22;11064;47.102;15.452;2022-07-29T16:33:00;28.30;55.70
21805;DHT22;11064;47.102;15.452;2022-07-29T16:35:26;28.70;55.40
21805;DHT22;11064;47.102;15.452;2022-07-29T16:37:52;29.30;54.20
21805;DHT22;11064;47.102;15.452;2022-07-29T16:40:17;29.40;52.80
21805;DHT22;11064;47.102;15.452;2022-07-29T16:42:43;29.30;51.70
21805;DHT22;11064;47.102;15.452;2022-07-29T16:45:09;29.20;51.60
21805;DHT22;11064;47.102;15.452;2022-07-29T16:47:35;29.10;51.80
21805;DHT22;11064;47.102;15.452;2022-07-29T16:50:01;29.00;52.50
21805;DHT22;11064;47.102;15.452;2022-07-29T16:52:27;28.90;53.40
21805;DHT22;11064;47.102;15.452;2022-07-29T16:54:52;28.50;53.90
21805;DHT22;11064;47.102;15.452;2022-07-29T16:57:18;28.20;55.30
21805;DHT22;11064;47.102;15.452;2022-07-29T16:59:44;27.80;55.50
21805;DHT22;11064;47.102;15.452;2022-07-29T17:02:09;27.70;56.20
21805;DHT22;11064;47.102;15.452;2022-07-29T17:04:36;27.40;58.00
21805;DHT22;11064;47.102;15.452;2022-07-29T17:07:02;27.10;57.00
21805;DHT22;11064;47.102;15.452;2022-07-29T17:09:28;26.90;58.70
21805;DHT22;11064;47.102;15.452;2022-07-29T17:11:53;26.80;58.50
21805;DHT22;11064;47.102;15.452;2022-07-29T17:14:25;26.60;58.80
21805;DHT22;11064;47.102;15.452;2022-07-29T17:16:52;26.40;60.00
21805;DHT22;11064;47.102;15.452;2022-07-29T17:19:20;26.20;61.50
21805;DHT22;11064;47.102;15.452;2022-07-29T17:21:45;26.00;62.40
21805;DHT22;11064;47.102;15.452;2022-07-29T17:24:11;25.80;63.70
21805;DHT22;11064;47.102;15.452;2022-07-29T17:26:37;25.60;65.00
21805;DHT22;11064;47.102;15.452;2022-07-29T17:29:05;25.40;66.00
21805;DHT22;11064;47.102;15.452;2022-07-29T17:31:31;25.20;66.60
21805;DHT22;11064;47.102;15.452;2022-07-29T17:33:56;25.00;67.90
21805;DHT22;11064;47.102;15.452;2022-07-29T17:36:24;24.80;69.80
21805;DHT22;11064;47.102;15.452;2022-07-29T17:38:55;24.60;72.00
21805;DHT22;11064;47.102;15.452;2022-07-29T17:41:22;24.40;72.70
21805;DHT22;11064;47.102;15.452;2022-07-29T17:43:48;24.30;72.90
21805;DHT22;11064;47.102;15.452;2022-07-29T17:46:15;24.20;73.10
21805;DHT22;11064;47.102;15.452;2022-07-29T17:48:41;24.20;74.00
21805;DHT22;11064;47.102;15.452;2022-07-29T17:51:07;24.20;74.60
21805;DHT22;11064;47.102;15.452;2022-07-29T17:53:33;24.20;74.50
21805;DHT22;11064;47.102;15.452;2022-07-29T17:55:58;24.20;75.40
21805;DHT22;11064;47.102;15.452;2022-07-29T17:58:24;24.20;75.90
21805;DHT22;11064;47.102;15.452;2022-07-29T18:00:51;24.10;75.80
21805;DHT22;11064;47.102;15.452;2022-07-29T18:03:17;24.00;76.10
21805;DHT22;11064;47.102;15.452;2022-07-29T18:05:43;24.00;76.50
21805;DHT22;11064;47.102;15.452;2022-07-29T18:08:09;23.80;77.70
21805;DHT22;11064;47.102;15.452;2022-07-29T18:10:35;23.70;77.60
21805;DHT22;11064;47.102;15.452;2022-07-29T18:13:02;23.70;78.10
21805;DHT22;11064;47.102;15.452;2022-07-29T18:15:29;23.50;79.90
21805;DHT22;11064;47.102;15.452;2022-07-29T18:17:55;23.40;81.50
21805;DHT22;11064;47.102;15.452;2022-07-29T18:20:21;23.30;83.10
21805;DHT22;11064;47.102;15.452;2022-07-29T18:22:47;23.30;83.40
21805;DHT22;11064;47.102;15.452;2022-07-29T18:25:13;23.20;81.50
21805;DHT22;11064;47.102;15.452;2022-07-29T18:27:38;23.20;80.30
21805;DHT22;11064;47.102;15.452;2022-07-29T18:30:05;23.20;80.50
21805;DHT22;11064;47.102;15.452;2022-07-29T18:32:31;23.00;82.40
21805;DHT22;11064;47.102;15.452;2022-07-29T18:34:57;22.90;84.90
21805;DHT22;11064;47.102;15.452;2022-07-29T18:37:27;22.70;88.30
21805;DHT22;11064;47.102;15.452;2022-07-29T18:39:53;22.60;90.40
21805;DHT22;11064;47.102;15.452;2022-07-29T18:42:18;22.50;90.60
21805;DHT22;11064;47.102;15.452;2022-07-29T18:44:44;22.40;91.60
21805;DHT22;11064;47.102;15.452;2022-07-29T18:47:10;22.30;92.80
21805;DHT22;11064;47.102;15.452;2022-07-29T18:49:35;22.10;93.70
21805;DHT22;11064;47.102;15.452;2022-07-29T18:52:01;22.00;95.20
21805;DHT22;11064;47.102;15.452;2022-07-29T18:54:27;22.00;94.10
21805;DHT22;11064;47.102;15.452;2022-07-29T18:56:55;22.00;95.20
21805;DHT22;11064;47.102;15.452;2022-07-29T18:59:21;21.90;95.40
21805;DHT22;11064;47.102;15.452;2022-07-29T19:01:47;21.90;95.80
21805;DHT22;11064;47.102;15.452;2022-07-29T19:04:14;21.90;96.10
21805;DHT22;11064;47.102;15.452;2022-07-29T19:06:40;21.90;97.20
21805;DHT22;11064;47.102;15.452;2022-07-29T19:09:06;21.90;97.00
21805;DHT22;11064;47.102;15.452;2022-07-29T19:11:36;21.90;97.00
21805;DHT22;11064;47.102;15.452;2022-07-29T19:14:02;21.90;96.80
21805;DHT22;11064;47.102;15.452;2022-07-29T19:16:28;21.90;96.80
21805;DHT22;11064;47.102;15.452;2022-07-29T19:18:54;21.90;97.40
21805;DHT22;11064;47.102;15.452;2022-07-29T19:21:20;21.80;97.40
21805;DHT22;11064;47.102;15.452;2022-07-29T19:23:46;21.80;98.40
21805;DHT22;11064;47.102;15.452;2022-07-29T19:26:12;21.70;99.20
21805;DHT22;11064;47.102;15.452;2022-07-29T19:28:38;21.70;99.90
21805;DHT22;11064;47.102;15.452;2022-07-29T19:31:03;21.60;99.90
21805;DHT22;11064;47.102;15.452;2022-07-29T19:33:29;21.60;99.90
21805;DHT22;11064;47.102;15.452;2022-07-29T19:35:55;21.60;99.90
21805;DHT22;11064;47.102;15.452;2022-07-29T19:38:21;21.70;99.90
21805;DHT22;11064;47.102;15.452;2022-07-29T19:40:48;21.70;99.90